Herrville, Pennsylvania
Current Conditions -  °F | °C
As of 1:53 AM on Monday 24 Nov 2014 (Local Time) from KLNS Reporting Station
Moderate Rain Moderate Rain  
Wind Chill: 56°   Ceiling: 800
Heat Index: 56°   Visibility: 4mi
Dew Point: 55°   Wind: 16mph
Humidity: 97%   Direction: 130°SE
Pressure: 29.7"   Gusts: NA
Location:  39.9601°N, 76.2683°W
Report Text: KLNS 240653Z AUTO 13014KT 4SM RA BR OVC008 13/13 A2970 RMK AO2 CIG 005V012 PRESFR SLP055 P0009 T01330128
Loading
Personal Weather Stations






























Interactive Weather Map New forecast layout! Learn more

10-Day Weather Forecast

Advertisements
Track Severe Weather on mobile